createdAt,value
2023-05-02T00:24:09.091Z,1009.23
2023-05-02T00:25:09.068Z,1009.28
2023-05-02T00:26:09.070Z,1009.26
2023-05-02T00:27:09.071Z,1009.28
2023-05-02T00:28:09.078Z,1009.27
2023-05-02T00:29:09.084Z,1009.29
2023-05-02T00:30:09.102Z,1009.31
2023-05-02T00:31:09.123Z,1009.37
2023-05-02T00:32:09.119Z,1009.32
2023-05-02T00:33:09.184Z,1009.35
2023-05-02T00:34:09.132Z,1009.40
2023-05-02T00:35:09.132Z,1009.35
2023-05-02T00:36:09.130Z,1009.42
2023-05-02T00:37:09.149Z,1009.41
2023-05-02T00:38:09.152Z,1009.46
2023-05-02T00:39:09.162Z,1009.47
2023-05-02T00:40:09.183Z,1009.50
2023-05-02T00:41:09.170Z,1009.45
2023-05-02T00:42:09.182Z,1009.48
2023-05-02T00:43:09.186Z,1009.50
2023-05-02T00:44:09.190Z,1009.51
2023-05-02T00:45:09.203Z,1009.52
2023-05-02T00:46:09.221Z,1009.53
2023-05-02T00:47:09.211Z,1009.54
2023-05-02T00:48:09.294Z,1009.56
2023-05-02T00:49:09.233Z,1009.56
2023-05-02T00:50:09.233Z,1009.58
2023-05-02T00:51:09.248Z,1009.56
2023-05-02T00:52:09.265Z,1009.61
2023-05-02T00:53:09.263Z,1009.60
2023-05-02T00:54:09.269Z,1009.61
2023-05-02T01:14:01.883Z,1009.88
2023-05-02T01:15:01.840Z,1009.89
2023-05-02T01:16:01.890Z,1009.91
2023-05-02T01:23:19.374Z,1009.93
2023-05-02T01:25:31.985Z,1009.99
2023-05-02T01:39:37.752Z,1010.02
2023-05-02T03:04:51.711Z,1010.70
2023-05-02T03:05:51.688Z,1010.66
2023-05-02T03:06:51.736Z,1010.71
2023-05-02T03:07:51.704Z,1010.67
2023-05-02T03:08:51.729Z,1010.68
2023-05-02T03:09:51.726Z,1010.72
2023-05-02T03:10:51.722Z,1010.76
2023-05-02T03:11:51.741Z,1010.69
2023-05-02T03:12:51.749Z,1010.72
2023-05-02T03:13:51.749Z,1010.70
2023-05-02T03:14:51.756Z,1010.71
2023-05-02T03:15:51.793Z,1010.73
2023-05-02T03:16:51.767Z,1010.72
2023-05-02T03:17:51.866Z,1010.74
2023-05-02T03:18:51.783Z,1010.73
2023-05-02T04:12:44.836Z,1011.28
2023-05-02T04:13:44.825Z,1011.30
2023-05-02T04:14:44.840Z,1011.31
2023-05-02T04:15:44.833Z,1011.34
2023-05-02T04:16:44.863Z,1011.37
2023-05-02T04:17:44.890Z,1011.39
2023-05-02T04:18:44.859Z,1011.40
2023-05-02T04:19:44.861Z,1011.39
2023-05-02T04:20:44.889Z,1011.43
2023-05-02T04:21:44.878Z,1011.45
2023-05-02T04:22:44.890Z,1011.46
2023-05-02T04:23:44.894Z,1011.44
2023-05-02T04:24:44.896Z,1011.48
2023-05-02T04:25:44.917Z,1011.50
2023-05-02T04:26:44.915Z,1011.58
2023-05-02T04:27:44.915Z,1011.63
2023-05-02T04:28:44.949Z,1011.63
2023-05-02T04:29:44.935Z,1011.67
2023-05-02T04:30:44.956Z,1011.65
2023-05-02T04:31:44.957Z,1011.69
2023-05-02T04:32:44.993Z,1011.74
2023-05-02T04:33:44.959Z,1011.79
2023-05-02T04:34:44.962Z,1011.75
2023-05-02T04:35:44.991Z,1011.81
2023-05-02T04:36:44.973Z,1011.83
2023-05-02T04:37:44.979Z,1011.80
2023-05-02T04:38:44.984Z,1011.83
2023-05-02T04:39:45.000Z,1011.81
2023-05-02T04:40:45.010Z,1011.87
2023-05-02T04:41:45.020Z,1011.90
2023-05-02T04:42:45.027Z,1011.85
2023-05-02T04:43:45.026Z,1011.84
2023-05-02T04:44:45.050Z,1011.88
2023-05-02T04:45:45.045Z,1011.93
2023-05-02T04:46:45.183Z,1011.95
2023-05-02T04:47:45.195Z,1011.96
2023-05-02T04:48:45.055Z,1011.98
2023-05-02T04:49:45.070Z,1011.98
2023-05-02T04:50:45.065Z,1012.00
2023-05-02T04:51:45.069Z,1012.03
2023-05-02T04:52:45.084Z,1012.03
2023-05-02T04:53:45.104Z,1012.01
2023-05-02T04:54:45.103Z,1012.05
2023-05-02T04:55:45.096Z,1012.06
2023-05-02T04:56:45.111Z,1012.07
2023-05-02T04:57:45.114Z,1012.07
2023-05-02T04:58:45.131Z,1012.07
2023-05-02T04:59:45.135Z,1012.11
2023-05-02T05:00:45.155Z,1012.09
2023-05-02T05:01:45.199Z,1012.06
2023-05-02T05:02:45.263Z,1012.11
2023-05-02T05:03:45.297Z,1012.09
2023-05-02T05:04:45.377Z,1012.12
2023-05-02T05:05:45.213Z,1012.13
2023-05-02T05:06:45.320Z,1012.16
2023-05-02T05:07:45.180Z,1012.17
2023-05-02T05:08:45.191Z,1012.14
2023-05-02T05:09:45.205Z,1012.18
2023-05-02T05:10:45.197Z,1012.18
2023-05-02T05:11:45.201Z,1012.19
2023-05-02T05:12:45.213Z,1012.23
2023-05-02T05:13:45.229Z,1012.22
2023-05-02T05:14:45.225Z,1012.23
2023-05-02T05:15:45.285Z,1012.22
2023-05-02T05:16:45.297Z,1012.20
2023-05-02T05:17:45.294Z,1012.22
2023-05-02T05:18:45.258Z,1012.22
2023-05-02T05:19:45.266Z,1012.24
2023-05-02T05:20:45.274Z,1012.27
2023-05-02T05:21:45.279Z,1012.31
2023-05-02T05:22:45.278Z,1012.31
2023-05-02T05:23:45.294Z,1012.29
2023-05-02T05:24:45.301Z,1012.32
2023-05-02T05:25:46.000Z,1012.32
2023-05-02T05:26:45.306Z,1012.34
2023-05-02T05:27:45.321Z,1012.44
2023-05-02T05:28:45.326Z,1012.43
2023-05-02T05:29:45.334Z,1012.43
2023-05-02T05:30:45.341Z,1012.42
2023-05-02T05:31:45.411Z,1012.46
2023-05-02T05:32:45.410Z,1012.50
2023-05-02T05:33:45.393Z,1012.49
2023-05-02T05:35:37.926Z,1012.55
2023-05-02T05:36:37.937Z,1012.55
2023-05-02T05:37:37.933Z,1012.54
2023-05-02T05:38:37.943Z,1012.59
2023-05-02T05:39:37.969Z,1012.56
2023-05-02T05:40:37.958Z,1012.55
2023-05-02T05:41:37.973Z,1012.62
2023-05-02T05:42:37.971Z,1012.64
2023-05-02T05:43:38.469Z,1012.61
2023-05-02T05:44:38.032Z,1012.62
2023-05-02T05:45:38.006Z,1012.65
2023-05-02T05:46:38.028Z,1012.68
2023-05-02T05:47:38.192Z,1012.74
2023-05-02T07:06:09.052Z,1013.83
2023-05-02T07:07:08.930Z,1013.90
2023-05-02T07:08:08.946Z,1013.89
2023-05-02T07:09:08.942Z,1013.93
2023-05-02T07:10:08.955Z,1013.89
2023-05-02T07:11:08.964Z,1013.96
2023-05-02T07:12:08.982Z,1013.95
2023-05-02T07:13:08.969Z,1013.97
2023-05-02T07:14:08.981Z,1013.97
2023-05-02T07:15:09.004Z,1013.98
2023-05-02T07:16:09.060Z,1013.99
2023-05-02T07:17:10.540Z,1013.99
2023-05-02T07:18:09.093Z,1014.00
2023-05-02T07:19:09.017Z,1014.03
2023-05-02T07:20:09.032Z,1014.07
2023-05-02T07:21:09.038Z,1014.08
2023-05-02T07:22:09.068Z,1014.06
2023-05-02T07:23:09.054Z,1014.07
2023-05-02T07:24:09.063Z,1014.08
2023-05-02T07:25:09.069Z,1014.11
2023-05-02T07:26:09.088Z,1014.15
2023-05-02T07:27:09.091Z,1014.13
2023-05-02T07:28:09.083Z,1014.17
2023-05-02T07:29:09.095Z,1014.15
2023-05-02T07:30:09.110Z,1014.21
2023-05-02T07:31:09.114Z,1014.13
2023-05-02T07:32:09.140Z,1014.20
2023-05-02T07:33:09.135Z,1014.16
2023-05-02T07:34:09.136Z,1014.21
2023-05-02T07:35:09.176Z,1014.19
2023-05-02T07:36:09.145Z,1014.24
2023-05-02T07:37:09.167Z,1014.28
2023-05-02T07:38:09.197Z,1014.26
2023-05-02T07:39:09.179Z,1014.29
2023-05-02T07:40:09.176Z,1014.22
2023-05-02T07:41:09.195Z,1014.25
2023-05-02T07:42:09.192Z,1014.27
2023-05-02T07:43:11.019Z,1014.27
2023-05-02T07:44:09.215Z,1014.27
2023-05-02T07:45:09.229Z,1014.32
2023-05-02T07:46:51.769Z,1014.31
2023-05-02T07:47:51.822Z,1014.39
2023-05-02T07:48:51.784Z,1014.39
2023-05-02T07:49:51.789Z,1014.42
2023-05-02T07:50:51.800Z,1014.42
2023-05-02T07:51:51.807Z,1014.45
2023-05-02T07:52:51.816Z,1014.46
2023-05-02T07:53:51.855Z,1014.45
2023-05-02T07:54:51.840Z,1014.49
2023-05-02T07:55:51.845Z,1014.53
2023-05-02T07:56:51.854Z,1014.51
2023-05-02T07:57:51.873Z,1014.51
2023-05-02T07:58:51.876Z,1014.51
2023-05-02T07:59:51.868Z,1014.50
2023-05-02T08:00:51.885Z,1014.50
2023-05-02T08:01:51.886Z,1014.51
2023-05-02T08:02:51.929Z,1014.55
2023-05-02T08:03:52.171Z,1014.57
2023-05-02T08:04:51.944Z,1014.59
2023-05-02T08:05:51.924Z,1014.61
2023-05-02T08:06:51.998Z,1014.59
2023-05-02T08:07:51.939Z,1014.60
2023-05-02T08:08:51.938Z,1014.58
2023-05-02T08:09:51.966Z,1014.63
2023-05-02T08:10:51.976Z,1014.64
2023-05-02T08:11:51.968Z,1014.72
2023-05-02T08:12:51.974Z,1014.67
2023-05-02T08:13:51.975Z,1014.71
2023-05-02T08:14:51.982Z,1014.76
2023-05-02T08:15:52.018Z,1014.74
2023-05-02T08:16:52.130Z,1014.78
2023-05-02T08:17:52.058Z,1014.84
2023-05-02T08:18:52.031Z,1014.90
2023-05-02T08:19:52.031Z,1014.90
2023-05-02T08:20:52.035Z,1014.92
2023-05-02T08:21:52.043Z,1014.96
2023-05-02T08:22:52.046Z,1014.99
2023-05-02T08:23:52.070Z,1014.96
2023-05-02T08:24:52.059Z,1014.99
2023-05-02T08:25:52.092Z,1014.99
2023-05-02T08:26:52.081Z,1015.02
2023-05-02T08:27:52.099Z,1015.03
2023-05-02T08:28:52.089Z,1015.12
2023-05-02T08:29:52.101Z,1015.08
2023-05-02T08:30:52.107Z,1015.10
2023-05-02T08:31:52.161Z,1015.09
2023-05-02T08:32:52.153Z,1015.15
2023-05-02T08:33:52.127Z,1015.13
2023-05-02T08:34:52.137Z,1015.20
2023-05-02T08:35:52.149Z,1015.19
2023-05-02T08:36:52.154Z,1015.23
2023-05-02T08:37:52.159Z,1015.25
2023-05-02T08:38:52.170Z,1015.27
2023-05-02T08:39:52.176Z,1015.28
2023-05-02T08:40:52.187Z,1015.35
2023-05-02T08:41:52.233Z,1015.36
2023-05-02T08:42:52.198Z,1015.37
2023-05-02T08:43:52.198Z,1015.39
2023-05-02T08:44:52.216Z,1015.39
2023-05-02T08:45:52.213Z,1015.42
2023-05-02T08:46:52.246Z,1015.50
2023-05-02T08:47:52.277Z,1015.49
2023-05-02T08:48:52.238Z,1015.50
2023-05-02T08:49:52.259Z,1015.57
2023-05-02T08:50:52.259Z,1015.60
2023-05-02T08:51:52.257Z,1015.64
2023-05-02T08:52:52.278Z,1015.62
2023-05-02T08:53:52.300Z,1015.66
2023-05-02T08:54:52.291Z,1015.69
2023-05-02T08:55:52.297Z,1015.76
2023-05-02T08:56:52.299Z,1015.77
2023-05-02T08:57:52.366Z,1015.79
2023-05-02T08:58:52.336Z,1015.81
2023-05-02T08:59:52.325Z,1015.89
2023-05-02T09:00:52.421Z,1015.94
2023-05-02T09:01:52.341Z,1015.94
2023-05-02T09:02:52.421Z,1016.01
2023-05-02T09:03:52.502Z,1015.98
2023-05-02T09:04:52.353Z,1016.03
2023-05-02T09:05:52.370Z,1016.04
2023-05-02T09:06:52.455Z,1016.10
2023-05-02T09:07:52.377Z,1016.10
2023-05-02T09:08:52.414Z,1016.10
2023-05-02T09:09:52.396Z,1016.10
2023-05-02T09:10:52.410Z,1016.14
2023-05-02T09:11:52.413Z,1016.15
2023-05-02T09:12:52.413Z,1016.23
2023-05-02T09:13:52.489Z,1016.26
2023-05-02T09:14:52.448Z,1016.24
2023-05-02T09:15:52.454Z,1016.28
2023-05-02T09:16:52.483Z,1016.23
2023-05-02T09:17:52.513Z,1016.27
2023-05-02T09:18:52.465Z,1016.22
2023-05-02T09:19:52.476Z,1016.33
2023-05-02T09:20:52.477Z,1016.29
2023-05-02T09:21:52.529Z,1016.35
2023-05-02T09:22:52.507Z,1016.35
2023-05-02T09:23:52.496Z,1016.36
2023-05-02T09:24:52.509Z,1016.35
2023-05-02T09:25:52.510Z,1016.37
2023-05-02T09:26:52.524Z,1016.42
2023-05-02T09:27:52.537Z,1016.44
2023-05-02T09:28:52.538Z,1016.50
2023-05-02T09:29:52.566Z,1016.46
2023-05-02T09:30:52.603Z,1016.45
2023-05-02T09:31:56.033Z,1016.49
2023-05-02T09:32:52.765Z,1016.47
2023-05-02T09:33:52.581Z,1016.49
2023-05-02T09:34:52.582Z,1016.49
2023-05-02T09:35:52.600Z,1016.56
2023-05-02T09:36:52.608Z,1016.53
2023-05-02T09:37:52.613Z,1016.55
2023-05-02T09:38:52.622Z,1016.54
2023-05-02T09:39:52.641Z,1016.52
2023-05-02T09:40:52.668Z,1016.56
2023-05-02T09:41:52.665Z,1016.57
2023-05-02T09:42:52.719Z,1016.56
2023-05-02T09:43:52.669Z,1016.54
2023-05-02T09:44:52.669Z,1016.60
2023-05-02T09:45:52.748Z,1016.50
2023-05-02T09:46:52.682Z,1016.57
2023-05-02T09:47:52.764Z,1016.56
2023-05-02T09:48:52.710Z,1016.56
2023-05-02T09:49:52.708Z,1016.59
2023-05-02T09:50:52.721Z,1016.56
2023-05-02T09:51:52.728Z,1016.52
2023-05-02T09:57:01.917Z,1016.55
2023-05-02T09:58:01.932Z,1016.56
2023-05-02T09:59:01.918Z,1016.54
2023-05-02T10:00:01.934Z,1016.57
2023-05-02T10:01:02.083Z,1016.51
2023-05-02T10:02:02.155Z,1016.53
2023-05-02T10:03:02.106Z,1016.48
2023-05-02T10:04:01.993Z,1016.55
2023-05-02T10:05:02.256Z,1016.52
2023-05-02T10:07:09.578Z,1016.56
2023-05-02T10:08:09.601Z,1016.50
2023-05-02T10:09:09.614Z,1016.47
2023-05-02T10:10:09.607Z,1016.47
2023-05-02T10:15:53.902Z,1016.51
2023-05-02T10:16:53.924Z,1016.48
2023-05-02T10:17:53.896Z,1016.52
2023-05-02T10:18:53.896Z,1016.56
2023-05-02T10:22:19.765Z,1016.54
2023-05-02T11:15:46.898Z,1016.54
2023-05-02T11:16:46.932Z,1016.52
2023-05-02T11:17:46.915Z,1016.55
2023-05-02T11:18:46.899Z,1016.50
2023-05-02T11:19:46.909Z,1016.59
2023-05-02T11:20:46.942Z,1016.58
2023-05-02T11:21:46.922Z,1016.59
2023-05-02T11:22:46.934Z,1016.55
2023-05-02T11:23:46.940Z,1016.63
2023-05-02T11:24:46.982Z,1016.63
2023-05-02T11:25:46.980Z,1016.55
2023-05-02T11:26:46.980Z,1016.59
2023-05-02T11:27:46.983Z,1016.58
2023-05-02T11:28:46.989Z,1016.63
2023-05-02T11:29:47.012Z,1016.64
2023-05-02T11:30:47.008Z,1016.63
2023-05-02T11:31:47.132Z,1016.65
2023-05-02T11:32:47.040Z,1016.66
2023-05-02T11:33:47.047Z,1016.67
2023-05-02T11:34:47.052Z,1016.67
2023-05-02T11:35:47.064Z,1016.70
2023-05-02T11:36:47.074Z,1016.69
2023-05-02T11:37:47.088Z,1016.73
2023-05-02T11:38:47.097Z,1016.74
2023-05-02T11:39:47.107Z,1016.74
2023-05-02T11:40:47.122Z,1016.76
2023-05-02T11:41:47.142Z,1016.75
2023-05-02T11:42:47.142Z,1016.71
2023-05-02T11:43:47.148Z,1016.69
2023-05-02T11:44:47.163Z,1016.75
2023-05-02T11:45:47.208Z,1016.76
2023-05-02T11:46:47.240Z,1016.76
2023-05-02T11:47:47.283Z,1016.77
2023-05-02T11:48:47.201Z,1016.70
2023-05-02T11:49:47.227Z,1016.74
2023-05-02T11:50:50.322Z,1016.72
2023-05-02T11:51:47.247Z,1016.78
2023-05-02T11:52:47.251Z,1016.77
2023-05-02T11:53:47.264Z,1016.80
2023-05-02T11:54:47.278Z,1016.78
2023-05-02T11:55:47.285Z,1016.78
2023-05-02T11:56:47.352Z,1016.76
2023-05-02T11:57:47.314Z,1016.80
2023-05-02T11:58:47.312Z,1016.79
2023-05-02T11:59:47.537Z,1016.76
2023-05-02T12:00:47.335Z,1016.78
2023-05-02T12:01:47.354Z,1016.77
2023-05-02T12:02:47.429Z,1016.84
2023-05-02T12:03:47.479Z,1016.79
2023-05-02T12:05:30.043Z,1016.83
2023-05-02T12:06:33.380Z,1016.85
2023-05-02T12:07:29.957Z,1016.78
2023-05-02T12:19:42.449Z,1017.04
2023-05-02T12:20:42.446Z,1017.07
2023-05-02T12:21:42.463Z,1017.11
2023-05-02T12:22:42.465Z,1017.11
2023-05-02T12:23:42.606Z,1017.09
2023-05-02T12:24:42.481Z,1017.06
2023-05-02T12:26:40.081Z,1017.10
2023-05-02T12:27:40.098Z,1017.17
2023-05-02T13:59:00.148Z,1017.72
2023-05-02T14:00:00.492Z,1017.62
2023-05-02T14:01:00.150Z,1017.66
2023-05-02T14:02:00.252Z,1017.64
2023-05-02T14:03:00.258Z,1017.65
2023-05-02T14:04:00.349Z,1017.69
2023-05-02T14:05:00.186Z,1017.74
2023-05-02T14:06:00.274Z,1017.67
2023-05-02T14:07:00.196Z,1017.68
2023-05-02T14:08:00.207Z,1017.69
2023-05-02T14:09:00.210Z,1017.67
2023-05-02T14:10:00.744Z,1017.70
2023-05-02T14:11:00.438Z,1017.73
2023-05-02T14:12:00.248Z,1017.68
2023-05-02T14:13:00.256Z,1017.71
2023-05-02T14:14:00.260Z,1017.67
2023-05-02T14:15:00.411Z,1017.68
2023-05-02T14:16:00.336Z,1017.67
2023-05-02T14:17:00.290Z,1017.73
2023-05-02T14:18:00.357Z,1017.75
2023-05-02T14:19:00.320Z,1017.77
2023-05-02T14:20:00.727Z,1017.72
2023-05-02T14:21:00.325Z,1017.71
2023-05-02T14:22:00.340Z,1017.75
2023-05-02T14:23:00.363Z,1017.72
2023-05-02T14:24:00.365Z,1017.75
2023-05-02T14:25:00.410Z,1017.73
2023-05-02T14:26:00.391Z,1017.71
2023-05-02T14:27:00.397Z,1017.77
2023-05-02T14:28:00.410Z,1017.77
2023-05-02T14:29:00.420Z,1017.79
2023-05-02T14:30:01.071Z,1017.74
2023-05-02T14:31:00.464Z,1017.76
2023-05-02T14:32:00.494Z,1017.71
2023-05-02T14:33:00.515Z,1017.75
2023-05-02T14:34:00.471Z,1017.81
2023-05-02T14:35:00.480Z,1017.77
2023-05-02T14:36:00.505Z,1017.85
2023-05-02T14:37:00.494Z,1017.84
2023-05-02T14:38:00.504Z,1017.80
2023-05-02T14:39:00.527Z,1017.85
2023-05-02T14:40:00.729Z,1017.81
2023-05-02T14:41:00.533Z,1017.82
2023-05-02T14:42:00.547Z,1017.80
2023-05-02T14:43:00.556Z,1017.81
2023-05-02T14:44:01.180Z,1017.80
2023-05-02T15:01:13.016Z,1017.75
2023-05-02T15:02:12.995Z,1017.75
2023-05-02T15:03:13.118Z,1017.78
2023-05-02T15:04:13.141Z,1017.81
2023-05-02T15:05:13.170Z,1017.80
2023-05-02T15:29:18.702Z,1017.75
2023-05-02T15:30:19.593Z,1017.76
2023-05-02T15:31:18.732Z,1017.79
2023-05-02T15:32:18.861Z,1017.82
2023-05-02T15:33:18.721Z,1017.83
2023-05-02T15:34:18.740Z,1017.85
2023-05-02T15:35:18.752Z,1017.88
2023-05-02T15:36:18.766Z,1017.88
2023-05-02T15:37:18.762Z,1017.85
2023-05-02T15:38:18.780Z,1017.87
2023-05-02T15:39:19.400Z,1017.88
2023-05-02T15:40:18.806Z,1017.89
2023-05-02T15:41:18.817Z,1017.86
2023-05-02T15:42:18.826Z,1017.94
2023-05-02T15:44:26.459Z,1017.89
2023-05-02T15:45:26.436Z,1017.91
2023-05-02T15:46:26.501Z,1017.91
2023-05-02T15:47:26.463Z,1017.94
2023-05-02T15:48:26.480Z,1017.92
2023-05-02T15:49:26.488Z,1017.95
2023-05-02T15:50:26.496Z,1017.95
2023-05-02T15:51:26.511Z,1017.98
2023-05-02T15:52:26.517Z,1017.93
2023-05-02T15:53:26.522Z,1017.95
2023-05-02T15:54:26.539Z,1017.95
2023-05-02T15:55:26.565Z,1017.93
2023-05-02T15:56:26.557Z,1017.92
2023-05-02T15:57:26.592Z,1017.92
2023-05-02T15:58:26.569Z,1017.95
2023-05-02T15:59:26.580Z,1017.96
2023-05-02T16:00:26.623Z,1017.95
2023-05-02T16:01:26.657Z,1017.95
2023-05-02T16:02:26.618Z,1017.98
2023-05-02T16:03:26.720Z,1017.95
2023-05-02T16:04:26.668Z,1017.92
2023-05-02T16:05:26.636Z,1017.97
2023-05-02T16:06:26.669Z,1017.96
2023-05-02T16:07:26.672Z,1018.00
2023-05-02T16:08:26.697Z,1018.03
2023-05-02T16:09:26.682Z,1018.01
2023-05-02T16:10:26.704Z,1018.03
2023-05-02T16:11:26.699Z,1018.04
2023-05-02T16:12:26.714Z,1018.08
2023-05-02T16:13:26.757Z,1018.08
2023-05-02T16:14:26.825Z,1018.05
2023-05-02T16:15:26.737Z,1018.09
2023-05-02T16:16:26.869Z,1018.07
2023-05-02T16:17:26.766Z,1018.13
2023-05-02T16:18:26.762Z,1018.13
2023-05-02T16:19:26.794Z,1018.14
2023-05-02T16:20:26.795Z,1018.16
2023-05-02T16:21:26.797Z,1018.18
2023-05-02T16:22:26.809Z,1018.15
2023-05-02T16:23:26.839Z,1018.10
2023-05-02T16:24:26.834Z,1018.12
2023-05-02T16:25:26.831Z,1018.08
2023-05-02T16:26:28.159Z,1018.13
2023-05-02T16:27:26.850Z,1018.13
2023-05-02T16:28:26.870Z,1018.15
2023-05-02T16:29:26.876Z,1018.14
2023-05-02T16:30:26.886Z,1018.14
2023-05-02T16:31:26.933Z,1018.14
2023-05-02T16:32:26.937Z,1018.17
2023-05-02T16:33:26.919Z,1018.15
2023-05-02T16:34:26.925Z,1018.22
2023-05-02T16:35:26.940Z,1018.21
2023-05-02T16:36:26.942Z,1018.22
2023-05-02T16:37:26.964Z,1018.29
2023-05-02T16:38:26.961Z,1018.25
2023-05-02T16:39:27.014Z,1018.24
2023-05-02T16:40:28.428Z,1018.29
2023-05-02T16:41:26.995Z,1018.29
2023-05-02T16:42:27.013Z,1018.28
2023-05-02T16:43:27.005Z,1018.28
2023-05-02T16:44:27.009Z,1018.29
2023-05-02T16:45:27.035Z,1018.28
2023-05-02T16:46:27.072Z,1018.31
2023-05-02T16:47:27.117Z,1018.30
2023-05-02T16:48:27.072Z,1018.25
2023-05-02T16:49:27.058Z,1018.28
2023-05-02T16:50:27.066Z,1018.27
2023-05-02T16:51:27.206Z,1018.27
2023-05-02T16:52:27.084Z,1018.33
2023-05-02T16:53:27.099Z,1018.36
2023-05-02T16:54:27.129Z,1018.40
2023-05-02T16:55:27.109Z,1018.42
2023-05-02T16:56:27.143Z,1018.42
2023-05-02T16:57:27.131Z,1018.38
2023-05-02T16:58:27.143Z,1018.40
2023-05-02T16:59:27.156Z,1018.41
2023-05-02T17:00:27.167Z,1018.44
2023-05-02T17:01:27.219Z,1018.42
2023-05-02T17:02:27.246Z,1018.47
2023-05-02T17:03:27.219Z,1018.45
2023-05-02T17:04:27.209Z,1018.47
2023-05-02T17:05:27.199Z,1018.50
2023-05-02T17:06:27.240Z,1018.51
2023-05-02T17:07:27.223Z,1018.47
2023-05-02T17:08:27.224Z,1018.52
2023-05-02T17:09:27.228Z,1018.49
2023-05-02T17:10:27.248Z,1018.48
2023-05-02T17:11:27.252Z,1018.55
2023-05-02T17:12:27.255Z,1018.56
2023-05-02T17:13:27.268Z,1018.55
2023-05-02T17:14:27.270Z,1018.54
2023-05-02T17:15:27.276Z,1018.56
2023-05-02T17:16:27.315Z,1018.53
2023-05-02T17:17:27.305Z,1018.57
2023-05-02T17:18:27.505Z,1018.61
2023-05-02T17:19:27.332Z,1018.66
2023-05-02T17:20:27.342Z,1018.65
2023-05-02T17:21:27.325Z,1018.67
2023-05-02T17:22:27.333Z,1018.68
2023-05-02T17:23:27.420Z,1018.70
2023-05-02T17:24:27.349Z,1018.71
2023-05-02T17:25:27.367Z,1018.72
2023-05-02T17:26:27.481Z,1018.70
2023-05-02T17:27:27.387Z,1018.71
2023-05-02T17:28:27.382Z,1018.73
2023-05-02T17:29:27.400Z,1018.77
2023-05-02T17:30:27.403Z,1018.74
2023-05-02T17:31:27.464Z,1018.82
2023-05-02T17:32:27.443Z,1018.77
2023-05-02T17:33:27.481Z,1018.75
2023-05-02T17:34:27.433Z,1018.84
2023-05-02T17:35:27.452Z,1018.84
2023-05-02T17:36:27.466Z,1018.82
2023-05-02T17:37:27.459Z,1018.85
2023-05-02T18:13:37.661Z,1019.28
2023-05-02T18:14:36.217Z,1019.33
2023-05-02T18:15:36.230Z,1019.37
2023-05-02T18:16:36.384Z,1019.40
2023-05-02T18:17:36.261Z,1019.40
2023-05-02T18:18:36.257Z,1019.41
2023-05-02T18:19:36.255Z,1019.44
2023-05-02T18:20:36.265Z,1019.44
2023-05-02T18:21:36.261Z,1019.49
2023-05-02T18:22:36.271Z,1019.51
2023-05-02T18:23:36.284Z,1019.50
2023-05-02T18:24:36.418Z,1019.54
2023-05-02T18:25:36.298Z,1019.53
2023-05-02T18:26:36.304Z,1019.56
2023-05-02T18:27:36.310Z,1019.56
2023-05-02T18:28:36.307Z,1019.58
2023-05-02T18:29:36.341Z,1019.62
2023-05-02T18:30:36.332Z,1019.70
2023-05-02T18:31:36.386Z,1019.68
2023-05-02T18:32:36.384Z,1019.68
2023-05-02T18:33:36.343Z,1019.72
2023-05-02T18:34:38.728Z,1019.70
2023-05-02T18:35:36.367Z,1019.76
2023-05-02T18:36:36.374Z,1019.74
2023-05-02T18:37:36.372Z,1019.77
2023-05-02T18:38:36.381Z,1019.79
2023-05-02T18:39:36.383Z,1019.80
2023-05-02T18:40:36.410Z,1019.79
2023-05-02T18:41:36.402Z,1019.84
2023-05-02T18:42:36.409Z,1019.78
2023-05-02T18:43:36.415Z,1019.83
2023-05-02T18:44:36.432Z,1019.89
2023-05-02T18:45:36.498Z,1019.85
2023-05-02T18:46:36.486Z,1019.88
2023-05-02T18:47:36.509Z,1019.84
2023-05-02T18:48:36.446Z,1019.95
2023-05-02T18:49:36.458Z,1019.91
2023-05-02T18:50:36.483Z,1019.93
2023-05-02T18:51:36.473Z,1019.94
2023-05-02T18:52:36.473Z,1019.98
2023-05-02T18:53:36.487Z,1019.99
2023-05-02T18:54:36.488Z,1020.00
2023-05-02T18:55:36.491Z,1020.03
2023-05-02T18:56:36.520Z,1020.07
2023-05-02T18:57:36.518Z,1020.03
2023-05-02T18:58:36.517Z,1020.05
2023-05-02T18:59:36.524Z,1020.04
2023-05-02T19:00:37.309Z,1020.06
2023-05-02T19:01:36.575Z,1020.09
2023-05-02T19:02:36.633Z,1020.08
2023-05-02T19:03:36.683Z,1020.10
2023-05-02T19:04:36.565Z,1020.14
2023-05-02T19:05:36.565Z,1020.17
2023-05-02T19:06:36.607Z,1020.16
2023-05-02T19:07:38.345Z,1020.16
2023-05-02T19:08:36.592Z,1020.15
2023-05-02T19:09:36.584Z,1020.19
2023-05-02T19:10:36.605Z,1020.25
2023-05-02T19:11:36.678Z,1020.22
2023-05-02T19:12:36.608Z,1020.18
2023-05-02T19:13:36.634Z,1020.23
2023-05-02T19:14:36.624Z,1020.31
2023-05-02T19:15:36.681Z,1020.27
2023-05-02T19:16:36.664Z,1020.30
2023-05-02T19:17:36.713Z,1020.33
2023-05-02T19:18:36.650Z,1020.32
2023-05-02T19:19:36.650Z,1020.31
2023-05-02T19:20:36.668Z,1020.28
2023-05-02T19:21:36.677Z,1020.34
2023-05-02T19:22:36.670Z,1020.32
2023-05-02T19:23:36.675Z,1020.36
2023-05-02T19:24:36.685Z,1020.38
2023-05-02T19:25:36.692Z,1020.38
2023-05-02T19:26:36.706Z,1020.43
2023-05-02T19:27:36.716Z,1020.45
2023-05-02T19:28:36.715Z,1020.47
2023-05-02T19:29:36.760Z,1020.47
2023-05-02T19:30:36.728Z,1020.53
2023-05-02T19:31:36.742Z,1020.50
2023-05-02T19:32:36.781Z,1020.52
2023-05-02T19:33:36.769Z,1020.51
2023-05-02T19:34:36.757Z,1020.52
2023-05-02T19:35:36.793Z,1020.53
2023-05-02T19:36:36.771Z,1020.51
2023-05-02T19:37:36.773Z,1020.48
2023-05-02T19:38:36.790Z,1020.54
2023-05-02T19:39:36.781Z,1020.54
2023-05-02T19:40:36.803Z,1020.60
2023-05-02T19:41:36.799Z,1020.61
2023-05-02T19:42:36.795Z,1020.60
2023-05-02T19:43:36.815Z,1020.58
2023-05-02T19:44:36.812Z,1020.62
2023-05-02T19:45:36.907Z,1020.66
2023-05-02T19:46:36.941Z,1020.64
2023-05-02T19:47:36.952Z,1020.67
2023-05-02T19:48:36.854Z,1020.67
2023-05-02T19:49:36.879Z,1020.65
2023-05-02T19:50:36.868Z,1020.70
2023-05-02T19:51:36.862Z,1020.71
2023-05-02T19:52:36.863Z,1020.71
2023-05-02T19:53:36.874Z,1020.76
2023-05-02T19:54:36.878Z,1020.79
2023-05-02T19:55:36.894Z,1020.79
2023-05-02T19:56:36.900Z,1020.82
2023-05-02T19:57:36.890Z,1020.85
2023-05-02T19:58:36.915Z,1020.87
2023-05-02T19:59:36.914Z,1020.90
2023-05-02T20:00:36.925Z,1020.92
2023-05-02T20:01:37.063Z,1020.90
2023-05-02T20:02:36.962Z,1020.91
2023-05-02T20:03:37.115Z,1020.91
2023-05-02T20:04:36.928Z,1020.92
2023-05-02T20:05:36.960Z,1020.96
2023-05-02T20:06:36.992Z,1021.00
2023-05-02T20:07:36.958Z,1020.97
2023-05-02T20:08:36.957Z,1020.98
2023-05-02T20:09:36.961Z,1021.00
2023-05-02T20:10:36.967Z,1021.01
2023-05-02T20:11:36.989Z,1021.02
2023-05-02T20:12:36.977Z,1021.06
2023-05-02T20:13:36.993Z,1021.04
2023-05-02T20:14:36.992Z,1021.03
2023-05-02T20:15:37.005Z,1021.04
2023-05-02T20:16:37.062Z,1021.03
2023-05-02T20:17:37.024Z,1021.02
2023-05-02T20:18:37.020Z,1021.01
2023-05-02T20:19:37.020Z,1021.07
2023-05-02T20:20:37.029Z,1021.09
2023-05-02T20:21:37.054Z,1021.10
2023-05-02T20:22:37.054Z,1021.13
2023-05-02T20:23:37.046Z,1021.13
2023-05-02T20:24:37.066Z,1021.10
2023-05-02T20:25:37.070Z,1021.12
2023-05-02T20:26:37.065Z,1021.11
2023-05-02T20:27:37.085Z,1021.16
2023-05-02T20:28:37.074Z,1021.15
2023-05-02T20:29:37.080Z,1021.14
2023-05-02T20:30:37.082Z,1021.09
2023-05-02T20:31:37.083Z,1021.12
2023-05-02T20:32:37.088Z,1021.16
2023-05-02T20:33:44.571Z,1021.17
2023-05-02T20:34:37.113Z,1021.17
2023-05-02T20:35:37.110Z,1021.20
2023-05-02T20:36:37.119Z,1021.21
2023-05-02T20:37:37.154Z,1021.24
2023-05-02T20:38:37.138Z,1021.26
2023-05-02T20:39:37.147Z,1021.25
